Terminal Aerodrome Forecast
Issued by NWS Wilmington, OH

Home | Current Version | Previous Version | Text Only | Print | Product List | Glossary On
Versions: 1 2 3 4 5 6 7 8 9 10 11 12 13 14 15 16 17 18 19 20 21 22 23 24 25 26 27 28 29 30
000
FTUS41 KILN 231700
TAFDAY
TAF
KDAY 231730Z 2318/2418 08005KT P6SM BKN060
      TEMPO 2318/2320 -SHRA OVC035
     FM232000 05005KT P6SM BKN040
     FM240200 05004KT P6SM BKN080
     FM240600 05004KT 2SM BR BKN200
     FM241400 04006KT P6SM SCT040=

USA.gov is the U.S. government's official web portal to all federal, state and local government web resources and services.